Wetterdaten: aktuell Donnerstag, 22.02.2024 21:00
Datum Zeit Temp. A. Feuchte A. Luftdruck Regen Wind Richtung Richtung Sonnenschein ET UV Solar Taupunkt Windchill Windben
22.02.2024 21:00 10,8 C 85 % 987,6 hPa 0,6 l/m 7,4 km/h (2 Bft) W 269 0 min 0,026 mm 0,0 UV-I 0 W/m 8,4 C 10,1 C 19,3 km/h (3 Bft)
22.02.2024 20:00 11,3 C 83 % 988,3 hPa 0,2 l/m 10,9 km/h (2 Bft) S-SO 167 0 min 0,025 mm 0,0 UV-I 0 W/m 8,5 C 8,6 C 24,1 km/h (4 Bft)
22.02.2024 19:00 11,6 C 82 % 989,1 hPa 0,0 l/m 7,0 km/h (2 Bft) S-SO 163 0 min 0,025 mm 0,0 UV-I 0 W/m 8,6 C 11,2 C 19,3 km/h (3 Bft)
22.02.2024 18:00 11,8 C 80 % 989,6 hPa 0,0 l/m 7,7 km/h (2 Bft) S-SO 164 0 min 0,025 mm 0,0 UV-I 0 W/m 8,5 C 10,9 C 17,7 km/h (3 Bft)
22.02.2024 17:00 12,2 C 79 % 989,9 hPa 0,0 l/m 5,0 km/h (1 Bft) S-SW 198 0 min 0,051 mm 0,0 UV-I 18 W/m 8,7 C 12,2 C 11,3 km/h (2 Bft)
22.02.2024 16:00 13,1 C 74 % 991,4 hPa 0,0 l/m 5,1 km/h (1 Bft) W-NW 297 5 min 0,076 mm 0,0 UV-I 81 W/m 8,6 C 13,1 C 19,3 km/h (3 Bft)
22.02.2024 15:00 13,2 C 73 % 992,3 hPa 0,0 l/m 6,8 km/h (2 Bft) SW 214 15 min 0,127 mm 0,7 UV-I 176 W/m 8,5 C 13,0 C 20,9 km/h (4 Bft)
22.02.2024 14:00 12,2 C 76 % 993,9 hPa 0,0 l/m 10,4 km/h (2 Bft) SW 219 0 min 0,077 mm 0,6 UV-I 128 W/m 8,1 C 9,8 C 24,1 km/h (4 Bft)
22.02.2024 13:00 12,1 C 76 % 995,0 hPa 0,0 l/m 4,5 km/h (1 Bft) W-NW 283 0 min 0,101 mm 0,9 UV-I 155 W/m 8,0 C 12,1 C 14,5 km/h (3 Bft)
22.02.2024 12:00 11,6 C 78 % 996,6 hPa 0,0 l/m 2,9 km/h (1 Bft) W-NW 283 5 min 0,102 mm 0,9 UV-I 142 W/m 7,9 C 11,6 C 17,7 km/h (3 Bft)
22.02.2024 11:00 10,7 C 81 % 997,3 hPa 0,0 l/m 5,5 km/h (1 Bft) W-NW 302 0 min 0,076 mm 0,9 UV-I 172 W/m 7,6 C 10,7 C 16,1 km/h (3 Bft)
22.02.2024 10:00 9,7 C 84 % 997,7 hPa 0,0 l/m 3,8 km/h (1 Bft) W 262 0 min 0,025 mm 0,6 UV-I 127 W/m 7,1 C 9,7 C 16,1 km/h (3 Bft)
22.02.2024 09:00 8,8 C 87 % 998,3 hPa 0,0 l/m 3,5 km/h (1 Bft) SO 129 0 min 0,026 mm 0,0 UV-I 49 W/m 6,8 C 8,8 C 16,1 km/h (3 Bft)
22.02.2024 08:00 8,3 C 88 % 998,9 hPa 0,4 l/m 4,1 km/h (1 Bft) S-SW 209 0 min 0,025 mm 0,0 UV-I 19 W/m 6,4 C 8,3 C 14,5 km/h (3 Bft)
22.02.2024 07:00 8,2 C 86 % 999,6 hPa 0,6 l/m 5,9 km/h (2 Bft) S 185 0 min 0,025 mm 0,0 UV-I 0 W/m 6,0 C 8,2 C 12,9 km/h (3 Bft)
22.02.2024 06:00 8,3 C 83 % 1000,6 hPa 0,2 l/m 6,6 km/h (2 Bft) S-SO 164 0 min 0,002 mm 0,0 UV-I 0 W/m 5,6 C 8,2 C 20,9 km/h (4 Bft)
22.02.2024 05:00 8,3 C 83 % 1001,6 hPa 0,0 l/m 6,4 km/h (2 Bft) S 180 0 min 0,025 mm 0,0 UV-I 0 W/m 5,6 C 8,3 C 14,5 km/h (3 Bft)
22.02.2024 04:00 8,6 C 79 % 1002,5 hPa 0,0 l/m 6,4 km/h (2 Bft) S 180 0 min 0,025 mm 0,0 UV-I 0 W/m 5,2 C 8,6 C 16,1 km/h (3 Bft)
22.02.2024 03:00 8,9 C 77 % 1003,8 hPa 0,2 l/m 8,0 km/h (2 Bft) S 180 0 min 0,025 mm 0,0 UV-I 0 W/m 5,1 C 7,7 C 16,1 km/h (3 Bft)
22.02.2024 02:00 9,3 C 73 % 1005,1 hPa 0,0 l/m 4,8 km/h (1 Bft) S-SW 202 0 min 0,025 mm 0,0 UV-I 0 W/m 4,7 C 9,3 C 14,5 km/h (3 Bft)
22.02.2024 01:00 10,0 C 64 % 1006,5 hPa 0,0 l/m 6,4 km/h (2 Bft) S 180 0 min 0,051 mm 0,0 UV-I 0 W/m 3,5 C 10,0 C 14,5 km/h (3 Bft)
22.02.2024 00:00 9,8 C 64 % 1007,6 hPa 0,0 l/m 4,8 km/h (1 Bft) S 180 0 min 0,025 mm 0,0 UV-I 0 W/m 3,3 C 9,8 C 11,3 km/h (2 Bft)
_ Min-Zeit 05:05 00:05 20:55 - 15:10 - - - - - - 00:05 05:25 12:50
Minimum _ 8,2 C 63 % 987,6 hPa - 1,1 km/h (1 Bft) - - - - - - 3,1 C 7,0 C 6,4 km/h (2 Bft)
_ Max-Zeit 15:10 07:40 00:00 02:10 20:00 - - 11:15 15:00 12:25 14:45 15:10 15:10 13:45
Maximum _ 13,4 C 88 % 1007,6 hPa 0,2 l/m 10,9 km/h
S-SO (2 Bft)
- - 5 min 0,127 mm 1,2 UV-I 338 W/m 8,9 C 13,4 C 27,4 km/h
S-SW (4 Bft)
Durchschnitt _ 10,4 C 79 % 996,9 hPa #2,2 l/m 5,5 km/h (1 Bft) S - #25 min. #0,940 mm 0,8 UV-I 108 W/m 6,9 C 10,3 C 15,6 km/h (3 Bft)